女満別空港の過去48時間の天気

女満別空港 (Memanbetsu)

現在時刻: 2/19 04:34 JST (2/18 19:34 UTC) 以下の時間は現地時間です。

過去48時間のMETAR気象情報
時間 風向 風速(m/s) 視程 気温(℃) 湿度(%) 気圧(hPa) 天気現象
18 20:00 南南西 2 10km以上 -9 85 1020
18 19:00 2 10km以上 -12 72 1020
18 18:00 南南東 2 10km以上 -8 79 1020
18 17:00 不定 1 10km以上 -5 74 1019
18 16:00 2 10km以上 -4 74 1018
18 15:00 3 10km以上 -4 80 1018 弱いしゅう雪
18 14:29 5 5000m -4 86 1017 弱いしゅう雪
18 14:00 6 3500m -3 80 1017 弱いしゅう雪
18 13:35 6 4900m -3 74 1016 弱いしゅう雪
18 13:10 4 6000m -3 68 1016 弱いしゅう雪
18 13:00 北北西 4 2000m -3 68 1016 弱いしゅう雪
18 12:13 北北西 4 5000m -2 64 1015 弱いしゅう雪
18 12:00 北北西 5 4000m -3 74 1015 弱いしゅう雪
18 11:22 6 3000m -3 74 1015 弱いしゅう雪
18 11:13 7 4900m -3 74 1015 弱いしゅう雪
18 11:00 7 10km以上 -2 69 1015 弱いしゅう雪
18 10:00 6 10km以上 -2 69 1014
18 09:00 不定 2 10km以上 -2 59 1013
18 08:00 不定 1 10km以上 -5 86 1012
18 07:45 不定 1 10km以上 -5 86 1011
RJCM 181100Z 21003KT 150V300 9999 FEW020 M09/M11 Q1020
RJCM 181000Z 17003KT 140V200 9999 FEW020 SCT050 M12/M16 Q1020
RJCM 180900Z 16003KT 9999 FEW020 SCT050 M08/M11 Q1020
RJCM 180800Z VRB02KT 9999 FEW020 SCT050 M05/M09 Q1019
RJCM 180700Z 09003KT 9999 FEW010 SCT040 M04/M08 Q1018
RJCM 180600Z 01006KT 9999 -SHSN FEW010 SCT015 BKN030 M04/M07 Q1018
RJCM 180529Z 36009KT 5000 -SHSN FEW005 SCT010 BKN020 M04/M06 Q1017 RMK 1ST005 3ST010 6CU020 A3004
RJCM 180500Z 36011KT 3500 -SHSN FEW009 SCT015 BKN020 M03/M06 Q1017
RJCM 180435Z 36012KT 4900 -SHSN FEW007 SCT010 BKN015 M03/M07 Q1016 RMK 1ST007 3ST010 5ST015 A3002
RJCM 180410Z 35007KT 6000 R36/1600VP1800D -SHSN FEW007 SCT010 BKN020 M03/M08 Q1016 RMK 1ST007 3ST010 5CU020 A3001 2500S
RJCM 180400Z 34008KT 2000 R36/1200VP1800D -SHSN FEW007 SCT010 BKN020 M03/M08 Q1016
RJCM 180313Z 34008KT 300V360 5000 -SHSN FEW010 SCT015 BKN020 M02/M08 Q1015 RMK 1ST010 3ST015 5CU020 A3000 9999NE
RJCM 180300Z 34009KT 4000 -SHSN FEW009 SCT015 BKN020 M03/M07 Q1015
RJCM 180222Z 35012KT 3000 -SHSN FEW010 SCT015 BKN030 M03/M07 Q1015 RMK 1ST010 3ST015 5CU030 A2999
RJCM 180213Z 35013KT 4900 -SHSN FEW010 SCT020 BKN030 M03/M07 Q1015 RMK 1ST010 3CU020 5CU030 A2999 9999S
RJCM 180200Z 36013KT 9999 -SHSN FEW010 SCT030 BKN040 M02/M07 Q1015
RJCM 180100Z 01011KT 9999 FEW010 SCT030 BKN040 M02/M07 Q1014
RJCM 180000Z VRB03KT 9999 FEW006 SCT035 BKN045 M02/M09 Q1013
RJCM 172300Z VRB02KT 9999 FEW007 SCT040 M05/M07 Q1012
RJCM 172245Z VRB02KT 9999 FEW007 M05/M07 Q1011 RMK 1ST007 A2988